Time;durP1;ratioP1;P1;durP2;ratioP2;P2;SDS_P1;SDS_P2;PMS_P1;PMS_P2;Temp;Humidity;BMP_temperature;BMP_pressure;BME280_temperature;BME280_humidity;BME280_pressure;Samples;Min_cycle;Max_cycle;Signal;HPM_P1;HPM_P2
2023/10/01 00:01:36;;;;;;;9.80;2.70;;;;;;;14.48;100.00;101581.06;4962134;28;20883;-75
2023/10/01 00:04:05;;;;;;;8.20;2.60;;;;;;;14.90;100.00;101649.28;4967251;28;20430;-76
2023/10/01 00:06:31;;;;;;;11.40;3.23;;;;;;;15.00;100.00;101658.81;4966268;28;20438;-75
2023/10/01 00:08:57;;;;;;;8.70;2.53;;;;;;;15.00;100.00;101654.25;4967875;28;20446;-77
2023/10/01 00:11:24;;;;;;;10.93;3.00;;;;;;;14.80;100.00;101629.94;4968595;28;20183;-77
2023/10/01 00:13:50;;;;;;;7.37;3.10;;;;;;;14.86;100.00;101641.78;4969281;28;20532;-77
2023/10/01 00:16:15;;;;;;;8.17;2.60;;;;;;;14.64;100.00;101601.50;4967488;28;20465;-77
2023/10/01 00:18:41;;;;;;;8.50;3.30;;;;;;;14.99;100.00;101655.31;4971035;28;20201;-77
2023/10/01 00:21:06;;;;;;;11.53;3.00;;;;;;;14.76;100.00;101611.69;4967482;28;20248;-77
2023/10/01 00:23:32;;;;;;;10.67;3.07;;;;;;;14.63;100.00;101602.50;4969528;28;20202;-77
2023/10/01 00:25:57;;;;;;;7.80;3.23;;;;;;;14.31;100.00;101552.00;4971132;28;20201;-77
2023/10/01 00:28:23;;;;;;;12.77;3.90;;;;;;;14.84;100.00;101651.94;4970723;28;20189;-77
2023/10/01 00:30:49;;;;;;;10.63;3.67;;;;;;;14.72;100.00;101605.00;4971322;28;20195;-77
2023/10/01 00:33:15;;;;;;;10.70;3.27;;;;;;;14.94;100.00;101659.66;4984242;28;20987;-77
2023/10/01 00:35:42;;;;;;;8.27;3.50;;;;;;;14.93;100.00;101664.25;4985508;28;20191;-77
2023/10/01 00:38:10;;;;;;;8.43;3.13;;;;;;;14.76;100.00;101634.09;4971261;28;20454;-77
2023/10/01 00:40:36;;;;;;;8.00;3.40;;;;;;;14.55;100.00;101605.44;4970924;28;20823;-77
2023/10/01 00:43:03;;;;;;;8.93;3.50;;;;;;;15.15;100.00;101689.16;4967976;28;20467;-77
2023/10/01 00:45:30;;;;;;;13.73;3.27;;;;;;;15.21;100.00;101685.63;4968418;28;20442;-78
2023/10/01 00:47:58;;;;;;;7.73;3.40;;;;;;;14.72;100.00;101608.53;4967548;28;20448;-77
2023/10/01 00:50:24;;;;;;;11.63;3.43;;;;;;;14.25;100.00;101543.69;4968815;28;20580;-76
2023/10/01 00:52:51;;;;;;;10.27;3.40;;;;;;;14.40;100.00;101591.25;4968371;28;20576;-77
2023/10/01 00:55:18;;;;;;;9.90;3.63;;;;;;;14.99;100.00;101654.47;4985717;28;20182;-77
2023/10/01 00:57:44;;;;;;;8.03;2.80;;;;;;;14.84;100.00;101622.25;4970456;28;20971;-78
2023/10/01 01:00:15;;;;;;;7.77;3.20;;;;;;;14.43;100.00;101594.34;4969374;28;20445;-77
2023/10/01 01:03:00;;;;;;;8.27;2.97;;;;;;;15.24;100.00;101681.66;4969873;28;20490;-77
2023/10/01 01:05:37;;;;;;;7.30;3.30;;;;;;;15.01;100.00;101669.41;4967896;28;20441;-77
2023/10/01 01:10:58;;;;;;;10.83;3.57;;;;;;;14.89;100.00;101631.38;4968955;28;21209;-77
2023/10/01 01:13:25;;;;;;;9.50;3.23;;;;;;;15.18;100.00;101661.72;4969732;28;20477;-77
2023/10/01 01:15:51;;;;;;;10.90;3.53;;;;;;;14.92;100.00;101663.38;4968482;28;20452;-77
2023/10/01 01:18:20;;;;;;;12.20;3.60;;;;;;;14.89;100.00;101611.66;4984972;28;20960;-77
2023/10/01 01:20:46;;;;;;;10.30;4.00;;;;;;;15.07;100.00;101657.81;4969303;28;20452;-77
2023/10/01 01:23:16;;;;;;;7.10;3.60;;;;;;;15.15;100.00;101652.16;4969446;28;21150;-77
2023/10/01 01:25:43;;;;;;;10.47;3.37;;;;;;;15.10;100.00;101649.28;4968927;28;20201;-77
2023/10/01 01:28:12;;;;;;;10.53;3.53;;;;;;;13.95;100.00;101475.00;4969590;28;20539;-77
2023/10/01 01:30:42;;;;;;;9.50;3.53;;;;;;;14.55;100.00;101570.34;4969909;28;20472;-76
2023/10/01 01:33:08;;;;;;;13.80;4.23;;;;;;;14.85;100.00;101605.84;4968267;28;20484;-77
2023/10/01 01:35:35;;;;;;;9.20;3.70;;;;;;;14.50;100.00;101550.38;4967393;28;20588;-76
2023/10/01 01:38:02;;;;;;;13.10;4.63;;;;;;;15.01;100.00;101637.00;4969362;28;20468;-76
2023/10/01 01:40:35;;;;;;;7.07;3.77;;;;;;;15.01;100.00;101634.28;4968045;28;20449;-77
2023/10/01 01:43:15;;;;;;;10.77;3.20;;;;;;;14.42;100.00;101546.00;4968675;28;20462;-77
2023/10/01 01:45:44;;;;;;;16.83;4.60;;;;;;;14.64;100.00;101579.88;4968947;28;21026;-76
2023/10/01 01:48:26;;;;;;;13.07;3.70;;;;;;;14.62;100.00;101554.97;4968871;28;20448;-77
2023/10/01 01:50:54;;;;;;;13.03;4.00;;;;;;;14.95;100.00;101634.31;4968369;28;20804;-77
2023/10/01 01:53:26;;;;;;;10.70;4.30;;;;;;;14.89;100.00;101642.19;4968406;28;20516;-77
2023/10/01 01:55:54;;;;;;;14.00;5.20;;;;;;;14.31;100.00;101552.84;4969698;28;20450;-76
2023/10/01 01:58:24;;;;;;;17.87;5.50;;;;;;;15.08;100.00;101624.31;4966626;28;20481;-77
2023/10/01 02:01:08;;;;;;;10.53;5.60;;;;;;;14.23;100.00;101532.28;4967930;28;20452;-77
2023/10/01 02:03:38;;;;;;;12.20;5.10;;;;;;;14.74;100.00;101595.66;4968340;28;21517;-76
2023/10/01 02:06:07;;;;;;;11.27;4.50;;;;;;;14.96;100.00;101644.91;4983871;28;20508;-77
2023/10/01 02:08:53;;;;;;;12.37;4.80;;;;;;;14.61;100.00;101603.75;4983621;28;20439;-77
2023/10/01 02:11:20;;;;;;;10.60;4.80;;;;;;;14.94;100.00;102443.94;4967773;28;20438;-77
2023/10/01 02:13:50;;;;;;;12.50;5.50;;;;;;;14.18;100.00;102349.66;4970279;28;20466;-77
2023/10/01 02:16:35;;;;;;;12.80;4.73;;;;;;;14.65;100.00;102407.00;4967402;28;20440;-77
2023/10/01 02:19:17;;;;;;;21.83;6.27;;;;;;;14.86;100.00;102462.94;4968767;28;20475;-76
2023/10/01 02:21:52;;;;;;;11.33;5.50;;;;;;;14.08;100.00;102334.75;4967547;28;20926;-77
2023/10/01 02:24:23;;;;;;;12.77;5.80;;;;;;;14.13;100.00;102335.03;4968891;28;20448;-77
2023/10/01 02:27:04;;;;;;;10.23;5.53;;;;;;;14.18;100.00;102343.41;4983638;28;20588;-76
2023/10/01 02:29:45;;;;;;;13.27;5.97;;;;;;;14.61;100.00;102422.75;4983989;28;20441;-77
2023/10/01 02:32:12;;;;;;;12.10;6.00;;;;;;;14.67;100.00;102432.81;4968818;28;20467;-75
2023/10/01 02:34:37;;;;;;;14.53;6.87;;;;;;;14.13;100.00;102359.31;4968302;28;20438;-75
2023/10/01 02:37:06;;;;;;;13.97;6.20;;;;;;;14.78;100.00;102460.34;4966776;28;20472;-75
2023/10/01 02:39:32;;;;;;;15.73;6.30;;;;;;;14.73;100.00;102439.31;4968131;28;20548;-76
2023/10/01 02:44:34;;;;;;;17.53;7.00;;;;;;;14.67;100.00;102462.50;4966832;28;20190;-75
2023/10/01 02:47:09;;;;;;;13.90;6.30;;;;;;;14.13;100.00;102375.50;4967685;28;20441;-75
2023/10/01 02:49:39;;;;;;;13.20;6.80;;;;;;;14.77;100.00;102472.19;4967915;28;20437;-75
2023/10/01 02:52:05;;;;;;;12.00;5.73;;;;;;;14.43;100.00;102438.44;4964891;28;20476;-75
2023/10/01 02:54:31;;;;;;;13.70;5.83;;;;;;;14.07;100.00;102377.09;4965133;28;20474;-75
2023/10/01 02:57:12;;;;;;;13.37;5.83;;;;;;;14.18;100.00;102395.53;4968102;28;20197;-76
2023/10/01 03:02:26;;;;;;;13.60;6.70;;;;;;;14.20;100.00;102382.69;4967791;28;20533;-75
2023/10/01 03:04:52;;;;;;;17.13;6.40;;;;;;;14.43;100.00;102425.75;4969222;28;20450;-76
2023/10/01 03:07:17;;;;;;;14.97;6.80;;;;;;;14.32;100.00;102433.47;4966078;28;20515;-74
2023/10/01 03:09:43;;;;;;;13.13;6.40;;;;;;;14.01;100.00;102367.03;4965788;28;20186;-75
2023/10/01 03:12:24;;;;;;;13.17;6.67;;;;;;;14.04;100.00;102369.34;4967114;28;20241;-75
2023/10/01 03:15:00;;;;;;;14.73;7.67;;;;;;;13.91;100.00;102352.97;4966534;28;20514;-75
2023/10/01 03:17:35;;;;;;;12.43;6.30;;;;;;;13.97;100.00;102361.16;4967792;28;20972;-75
2023/10/01 03:20:15;;;;;;;14.07;7.00;;;;;;;14.69;100.00;102470.41;4968762;28;20481;-75
2023/10/01 03:22:43;;;;;;;10.90;6.70;;;;;;;14.06;100.00;102388.91;4968325;28;20481;-75
2023/10/01 03:25:14;;;;;;;13.13;6.87;;;;;;;14.66;100.00;102487.81;4969470;28;20455;-75
2023/10/01 03:27:40;;;;;;;13.97;7.13;;;;;;;14.46;100.00;102468.63;4966587;28;20539;-75
2023/10/01 03:30:22;;;;;;;16.67;8.10;;;;;;;14.37;100.00;102439.19;4968712;28;20441;-74
2023/10/01 03:32:48;;;;;;;13.43;6.93;;;;;;;14.66;100.00;102471.63;4968365;28;20206;-75
2023/10/01 03:35:13;;;;;;;16.40;8.13;;;;;;;14.00;100.00;102365.34;4967571;28;20516;-75
2023/10/01 03:37:39;;;;;;;16.43;8.17;;;;;;;14.25;100.00;102414.50;4968933;28;20206;-75
2023/10/01 03:40:21;;;;;;;15.20;7.10;;;;;;;13.96;100.00;102393.72;4966470;28;20273;-76
2023/10/01 03:42:51;;;;;;;9.67;6.50;;;;;;;14.40;100.00;102455.84;4967907;28;20281;-76
2023/10/01 03:47:58;;;;;;;17.70;7.87;;;;;;;14.07;100.00;102398.66;4964882;28;20441;-75
2023/10/01 03:50:26;;;;;;;20.37;7.70;;;;;;;14.30;100.00;102438.25;4969073;28;20450;-76
2023/10/01 03:52:54;;;;;;;13.97;8.70;;;;;;;14.51;100.00;102469.91;4970962;28;20474;-75
2023/10/01 03:55:27;;;;;;;16.03;8.10;;;;;;;14.43;100.00;102460.03;4964936;28;20508;-75
2023/10/01 03:58:37;;;;;;;14.97;8.53;;;;;;;13.89;100.00;102366.66;4969634;28;20508;-75
2023/10/01 04:00:41;;;;;;;9.63;6.17;;;;;;;14.02;100.00;102384.88;4970618;28;20447;-76
2023/10/01 04:03:16;;;;;;;18.47;8.40;;;;;;;14.53;100.00;102451.72;4966370;28;20472;-75
2023/10/01 04:05:46;;;;;;;21.10;9.23;;;;;;;14.45;100.00;102449.88;4971894;28;20443;-77
2023/10/01 04:08:12;;;;;;;17.60;8.87;;;;;;;14.21;100.00;102413.22;4968674;28;21011;-76
2023/10/01 04:10:38;;;;;;;15.33;8.03;;;;;;;13.99;100.00;102380.69;4964661;28;20441;-76
2023/10/01 04:13:20;;;;;;;11.70;7.67;;;;;;;14.33;100.00;102429.78;4962632;28;20474;-76
2023/10/01 04:15:49;;;;;;;18.63;8.33;;;;;;;14.42;100.00;102461.06;4970083;28;20441;-76
2023/10/01 04:23:33;;;;;;;15.13;9.53;;;;;;;14.35;100.00;102474.47;4967792;28;20834;-76
2023/10/01 04:26:06;;;;;;;15.57;9.03;;;;;;;14.34;100.00;102464.66;4966688;28;20983;-75
2023/10/01 04:28:34;;;;;;;14.73;7.47;;;;;;;14.46;100.00;102454.25;4971494;28;20441;-76
2023/10/01 04:31:03;;;;;;;15.70;7.40;;;;;;;13.72;100.00;102348.94;4968996;28;20939;-76
2023/10/01 04:33:29;;;;;;;19.10;8.90;;;;;;;13.73;100.00;102366.78;4980296;28;20485;-76
2023/10/01 04:35:58;;;;;;;16.37;8.70;;;;;;;13.73;100.00;102337.97;4971467;28;20461;-77
2023/10/01 04:38:28;;;;;;;11.80;8.97;;;;;;;13.31;100.00;102288.16;4972291;28;20473;-77
2023/10/01 04:40:55;;;;;;;18.73;9.47;;;;;;;14.26;100.00;102418.88;4969370;28;20426;-76
2023/10/01 04:43:20;;;;;;;16.00;9.30;;;;;;;14.20;100.00;102420.47;4967234;28;20820;-75
2023/10/01 04:45:47;;;;;;;15.13;8.87;;;;;;;14.35;100.00;102436.69;4965731;28;20453;-75
2023/10/01 04:48:22;;;;;;;15.60;8.93;;;;;;;14.15;100.00;102427.44;4968795;28;20280;-74
2023/10/01 04:50:49;;;;;;;15.93;9.40;;;;;;;13.62;100.00;102341.09;4967521;28;20501;-76
2023/10/01 04:53:19;;;;;;;17.60;10.10;;;;;;;14.19;100.00;102413.38;4967432;28;20477;-75
2023/10/01 04:56:01;;;;;;;15.00;8.00;;;;;;;14.44;100.00;102453.63;4974865;28;20430;-76
2023/10/01 04:58:29;;;;;;;12.97;8.63;;;;;;;13.61;100.00;102339.41;4970461;28;20429;-75
2023/10/01 05:00:55;;;;;;;16.80;9.13;;;;;;;14.01;100.00;102405.63;4967818;28;21063;-75
2023/10/01 05:03:40;;;;;;;13.63;8.50;;;;;;;14.38;100.00;102446.28;4962816;28;20454;-76
2023/10/01 05:06:11;;;;;;;20.20;10.63;;;;;;;14.35;100.00;102462.81;4961965;28;21070;-76
2023/10/01 05:08:40;;;;;;;14.93;8.47;;;;;;;14.44;100.00;102461.72;4967845;28;20441;-76
2023/10/01 05:11:10;;;;;;;14.33;9.17;;;;;;;14.42;100.00;102455.66;4971052;28;20426;-77
2023/10/01 05:13:44;;;;;;;13.97;7.67;;;;;;;14.43;100.00;102447.38;4969345;28;20612;-76
2023/10/01 05:16:14;;;;;;;15.63;9.87;;;;;;;14.19;100.00;102410.69;4971113;28;20421;-76
2023/10/01 05:18:45;;;;;;;14.70;9.20;;;;;;;13.91;100.00;102388.03;4970780;28;20438;-76
2023/10/01 05:21:18;;;;;;;15.90;8.60;;;;;;;14.50;100.00;102471.78;4969281;28;20481;-77
2023/10/01 05:23:47;;;;;;;16.10;8.80;;;;;;;14.45;100.00;102468.78;4968032;28;20441;-76
2023/10/01 05:26:18;;;;;;;14.40;9.27;;;;;;;14.35;100.00;102452.00;4983635;28;20501;-76
2023/10/01 05:28:46;;;;;;;16.33;9.17;;;;;;;14.36;100.00;102478.00;4968503;28;20438;-76
2023/10/01 05:31:24;;;;;;;18.97;9.40;;;;;;;13.83;100.00;102366.50;4964731;28;20441;-76
2023/10/01 05:33:58;;;;;;;15.40;8.50;;;;;;;14.27;100.00;102438.63;4966793;28;20488;-75
2023/10/01 05:36:24;;;;;;;13.60;7.20;;;;;;;13.84;100.00;102376.31;4967867;28;20453;-76
2023/10/01 05:38:51;;;;;;;15.27;8.23;;;;;;;13.62;100.00;102338.41;4966609;28;20445;-76
2023/10/01 05:41:29;;;;;;;14.90;8.53;;;;;;;14.40;100.00;102463.09;4967453;28;20183;-76
2023/10/01 05:43:59;;;;;;;16.00;8.90;;;;;;;14.51;100.00;102486.94;4967163;28;20434;-75
2023/10/01 05:46:27;;;;;;;14.87;10.30;;;;;;;14.27;100.00;102447.56;4967113;28;20473;-75
2023/10/01 05:48:55;;;;;;;13.60;9.20;;;;;;;14.37;100.00;102471.56;4969388;28;20444;-76
2023/10/01 05:51:30;;;;;;;12.77;7.73;;;;;;;14.35;100.00;102449.31;4968538;28;20992;-75
2023/10/01 05:54:01;;;;;;;11.03;7.80;;;;;;;13.52;100.00;102325.19;4968338;28;20465;-76
2023/10/01 05:56:36;;;;;;;18.33;10.10;;;;;;;13.85;100.00;102376.09;4969001;28;20448;-76
2023/10/01 05:59:03;;;;;;;15.83;9.00;;;;;;;13.98;100.00;102381.72;4968346;28;20437;-76
2023/10/01 06:01:29;;;;;;;13.20;8.73;;;;;;;14.32;100.00;102441.59;4967648;28;21207;-75
2023/10/01 06:03:56;;;;;;;13.00;8.00;;;;;;;14.20;100.00;102433.97;4964924;28;20444;-76
2023/10/01 06:06:24;;;;;;;15.33;8.60;;;;;;;14.53;100.00;102494.91;4967057;28;20178;-75
2023/10/01 06:08:58;;;;;;;17.40;8.90;;;;;;;13.60;100.00;102370.13;4963769;28;21020;-76
2023/10/01 06:11:38;;;;;;;13.17;8.20;;;;;;;14.51;100.00;102510.41;4964267;28;20440;-76
2023/10/01 06:14:05;;;;;;;13.03;7.87;;;;;;;14.43;100.00;102519.41;4960128;28;20517;-76
2023/10/01 06:16:37;;;;;;;17.57;9.40;;;;;;;13.79;100.00;102460.44;4964910;28;21007;-76
2023/10/01 06:19:04;;;;;;;16.07;8.00;;;;;;;14.57;100.00;102520.50;4962820;28;20527;-76
2023/10/01 06:21:31;;;;;;;16.73;8.70;;;;;;;14.34;100.00;102534.03;4965904;28;21031;-76
2023/10/01 06:23:58;;;;;;;15.30;8.17;;;;;;;13.86;100.00;102490.25;4965364;28;20529;-75
2023/10/01 06:26:33;;;;;;;14.40;7.13;;;;;;;14.18;100.00;102556.59;4967283;28;20445;-75
2023/10/01 06:29:01;;;;;;;13.40;7.73;;;;;;;14.11;100.00;102528.66;4967234;28;20524;-76
2023/10/01 06:31:27;;;;;;;13.00;7.60;;;;;;;14.29;100.00;102566.09;4966740;28;20497;-75
2023/10/01 06:33:53;;;;;;;13.10;7.00;;;;;;;13.93;100.00;102550.53;4963443;28;23984;-75
2023/10/01 06:36:21;;;;;;;14.63;8.37;;;;;;;13.34;100.00;102479.13;4965055;28;20433;-76
2023/10/01 06:38:47;;;;;;;17.00;8.17;;;;;;;13.53;100.00;102512.84;4981102;28;20446;-76
2023/10/01 06:41:18;;;;;;;16.30;8.40;;;;;;;13.89;100.00;102550.06;4966408;28;20457;-76
2023/10/01 06:43:48;;;;;;;14.83;8.37;;;;;;;13.51;100.00;102497.88;4966010;28;20540;-76
2023/10/01 06:46:19;;;;;;;14.97;8.17;;;;;;;13.80;100.00;102543.06;4968525;28;20438;-76
2023/10/01 06:48:49;;;;;;;14.53;8.13;;;;;;;13.65;100.00;102551.03;4967241;28;20433;-75
2023/10/01 06:51:16;;;;;;;13.90;8.50;;;;;;;13.54;100.00;102543.38;4967586;28;20444;-75
2023/10/01 06:53:45;;;;;;;15.40;8.67;;;;;;;13.39;100.00;102496.59;4965579;28;20485;-76
2023/10/01 06:56:14;;;;;;;16.30;7.90;;;;;;;13.50;100.00;102548.25;4966422;28;20572;-75
2023/10/01 06:58:41;;;;;;;14.53;7.63;;;;;;;14.19;100.00;102631.13;4982693;28;20793;-76
2023/10/01 07:01:33;;;;;;;13.53;8.60;;;;;;;13.43;100.00;102544.59;4965356;28;20438;-76
2023/10/01 07:03:52;;;;;;;14.53;7.73;;;;;;;13.17;100.00;102531.38;4967033;28;20417;-76
2023/10/01 07:06:17;;;;;;;13.70;7.63;;;;;;;13.72;100.00;102603.25;4964969;28;21512;-75
2023/10/01 07:08:43;;;;;;;17.90;8.20;;;;;;;13.54;100.00;102586.50;4967466;28;20646;-76
2023/10/01 07:11:17;;;;;;;16.13;8.03;;;;;;;13.36;100.00;102558.94;4965036;28;20672;-76
2023/10/01 07:13:43;;;;;;;13.90;8.20;;;;;;;14.12;100.00;102697.66;4967084;28;20217;-76
2023/10/01 07:16:09;;;;;;;15.43;7.77;;;;;;;13.94;100.00;102673.59;4962044;28;20452;-76
2023/10/01 07:18:37;;;;;;;15.80;8.47;;;;;;;13.68;100.00;102633.44;4965849;28;20186;-76
2023/10/01 07:21:16;;;;;;;16.70;9.37;;;;;;;13.38;100.00;102594.66;4967031;28;20274;-75
2023/10/01 07:23:42;;;;;;;15.60;8.83;;;;;;;13.37;100.00;102598.38;4964919;28;20454;-76
2023/10/01 07:26:12;;;;;;;18.97;9.87;;;;;;;13.28;100.00;102601.09;4966142;28;20472;-76
2023/10/01 07:28:41;;;;;;;18.90;9.83;;;;;;;13.74;100.00;102665.09;4967936;28;20801;-76
2023/10/01 07:31:07;;;;;;;15.93;8.20;;;;;;;13.71;100.00;102668.13;4980460;28;20951;-76
2023/10/01 07:33:33;;;;;;;15.33;7.90;;;;;;;13.21;100.00;102578.50;4983600;28;20482;-76
2023/10/01 07:35:59;;;;;;;17.63;8.57;;;;;;;14.27;100.00;102722.03;4970820;28;20302;-76
2023/10/01 07:38:46;;;;;;;17.90;8.27;;;;;;;14.28;100.00;102715.59;4971139;28;20442;-77
2023/10/01 07:41:14;;;;;;;17.33;9.00;;;;;;;13.59;100.00;102619.16;4970544;28;20178;-77
2023/10/01 07:43:42;;;;;;;12.47;7.90;;;;;;;13.76;100.00;102653.13;4972176;28;20463;-77
2023/10/01 07:46:08;;;;;;;12.53;6.60;;;;;;;13.81;100.00;102633.72;4973503;28;20440;-76
2023/10/01 07:48:35;;;;;;;22.03;8.00;;;;;;;13.79;100.00;102647.38;4960775;28;20450;-77
2023/10/01 07:51:04;;;;;;;18.97;9.87;;;;;;;14.23;100.00;102724.22;4947738;28;20190;-77
2023/10/01 07:53:33;;;;;;;17.10;9.23;;;;;;;14.29;100.00;102703.75;4964327;28;20582;-77
2023/10/01 07:56:02;;;;;;;13.50;8.27;;;;;;;13.99;100.00;102646.94;4960918;28;20803;-75
2023/10/01 07:58:47;;;;;;;18.30;9.90;;;;;;;14.00;100.00;102671.06;4970775;28;20441;-78
2023/10/01 08:02:07;;;;;;;18.63;9.73;;;;;;;13.95;100.00;102661.81;4966713;28;20473;-76
2023/10/01 08:04:08;;;;;;;15.43;9.17;;;;;;;14.40;100.00;102724.97;4956415;28;20476;-76
2023/10/01 08:06:42;;;;;;;15.37;8.13;;;;;;;14.42;100.00;102722.94;4962968;28;21040;-75
2023/10/01 08:09:12;;;;;;;19.50;10.10;;;;;;;14.21;100.00;102672.28;4964650;28;21356;-77
2023/10/01 08:14:27;;;;;;;15.10;8.27;;;;;;;14.46;100.00;102708.91;4967708;28;20485;-79
2023/10/01 08:16:57;;;;;;;17.53;9.60;;;;;;;13.86;100.00;102600.84;4972289;28;20441;-78
2023/10/01 08:19:22;;;;;;;16.63;9.50;;;;;;;14.22;100.00;102682.88;4964426;28;20426;-77
2023/10/01 08:21:53;;;;;;;18.73;9.50;;;;;;;13.61;100.00;102565.91;4972674;28;20476;-77
2023/10/01 08:24:20;;;;;;;15.40;9.40;;;;;;;14.58;100.00;102711.19;4969679;28;20535;-76
2023/10/01 08:26:58;;;;;;;17.87;8.70;;;;;;;14.51;100.00;102699.41;4959000;28;20468;-76
2023/10/01 08:32:11;;;;;;;17.93;8.33;;;;;;;14.46;100.00;102687.31;4952313;28;20587;-77
2023/10/01 08:37:24;;;;;;;17.73;9.03;;;;;;;14.05;100.00;102597.66;4955807;28;20492;-78
2023/10/01 08:39:53;;;;;;;16.97;8.50;;;;;;;14.77;100.00;102696.38;4954789;28;21081;-78
2023/10/01 08:42:19;;;;;;;12.20;8.17;;;;;;;14.33;100.00;102643.03;4950847;28;20458;-77
2023/10/01 08:44:51;;;;;;;19.83;9.70;;;;;;;14.74;100.00;102686.78;4955235;28;20442;-78
2023/10/01 08:49:53;;;;;;;17.77;8.37;;;;;;;14.79;100.00;102697.88;4956969;28;20444;-80
2023/10/01 08:52:27;;;;;;;14.23;8.13;;;;;;;14.32;100.00;102644.03;4949945;28;20952;-77
2023/10/01 08:54:56;;;;;;;14.77;8.20;;;;;;;14.70;100.00;102671.97;4975108;28;20473;-78
2023/10/01 08:57:36;;;;;;;15.17;9.37;;;;;;;13.94;100.00;102584.56;4952824;28;20809;-76
2023/10/01 09:00:20;;;;;;;15.97;8.60;;;;;;;14.81;100.00;102720.16;4961052;28;20441;-77
2023/10/01 09:03:10;;;;;;;15.27;8.77;;;;;;;14.64;100.00;102722.16;4961337;28;20479;-76
2023/10/01 09:05:36;;;;;;;15.67;9.53;;;;;;;14.56;100.00;102732.16;4957254;28;20441;-77
2023/10/01 09:08:26;;;;;;;16.80;8.80;;;;;;;14.60;100.00;102726.22;4958516;28;20445;-76
2023/10/01 09:10:55;;;;;;;15.87;8.90;;;;;;;14.08;100.00;102669.31;4984607;28;20444;-78
2023/10/01 09:13:21;;;;;;;15.90;8.90;;;;;;;14.50;100.00;102730.97;4971366;28;20481;-79
2023/10/01 09:15:53;;;;;;;15.60;8.50;;;;;;;14.66;100.00;102763.28;4969581;28;20500;-81
2023/10/01 09:18:22;;;;;;;15.90;8.90;;;;;;;14.16;100.00;102683.59;4987489;28;20197;-79
2023/10/01 09:23:56;;;;;;;16.90;8.60;;;;;;;14.66;100.00;102773.25;4964223;28;20914;-77
2023/10/01 09:26:41;;;;;;;16.97;8.73;;;;;;;14.89;100.00;102814.63;4966991;28;20453;-77
2023/10/01 09:29:21;;;;;;;20.80;9.87;;;;;;;14.45;100.00;102725.28;4974683;28;20442;-78
2023/10/01 09:31:56;;;;;;;17.23;9.73;;;;;;;15.11;100.00;102823.78;4966428;28;20519;-77
2023/10/01 09:34:34;;;;;;;17.80;9.17;;;;;;;14.95;100.00;102787.94;4965769;28;20851;-77
2023/10/01 09:37:34;;;;;;;20.90;8.93;;;;;;;15.29;100.00;102828.88;4965962;28;20460;-76
2023/10/01 09:40:32;;;;;;;18.70;9.07;;;;;;;15.28;100.00;102826.38;4959078;28;20532;-77
2023/10/01 09:43:02;;;;;;;16.63;9.30;;;;;;;14.84;100.00;102727.03;4961995;28;20512;-77
2023/10/01 09:45:39;;;;;;;19.10;8.43;;;;;;;14.71;100.00;102707.91;4963405;28;20445;-76
2023/10/01 09:48:09;;;;;;;18.23;9.13;;;;;;;15.22;100.00;102781.13;4965034;28;20449;-77
2023/10/01 09:50:39;;;;;;;18.40;8.00;;;;;;;15.35;100.00;102790.28;4963893;28;20442;-76
2023/10/01 09:53:22;;;;;;;14.83;9.73;;;;;;;15.27;100.00;102776.00;4946586;28;20485;-75
2023/10/01 09:55:49;;;;;;;14.80;8.30;;;;;;;14.83;100.00;102704.59;4963129;28;20453;-77
2023/10/01 09:58:25;;;;;;;18.00;8.47;;;;;;;15.07;100.00;102743.22;4971634;28;20930;-76
2023/10/01 10:00:55;;;;;;;17.23;8.50;;;;;;;15.08;100.00;102716.03;4957844;28;20536;-77
2023/10/01 10:03:21;;;;;;;17.90;8.20;;;;;;;15.18;100.00;102717.63;4953373;28;20461;-77
2023/10/01 10:05:48;;;;;;;16.90;8.77;;;;;;;15.35;100.00;102738.06;4949173;28;20445;-75
2023/10/01 10:08:26;;;;;;;14.47;8.60;;;;;;;15.22;100.00;102686.53;4943281;28;20807;-76
2023/10/01 10:10:55;;;;;;;16.87;8.90;;;;;;;15.63;100.00;102732.88;4955035;28;20935;-78
2023/10/01 10:13:37;;;;;;;17.60;8.43;;;;;;;15.05;100.00;102653.41;4979789;28;20578;-78
2023/10/01 10:16:28;;;;;;;13.50;8.00;;;;;;;15.90;100.00;102742.22;4968756;28;20528;-76
2023/10/01 10:19:05;;;;;;;14.10;7.90;;;;;;;15.94;100.00;102686.72;4966480;28;20576;-75
2023/10/01 10:24:46;;;;;;;18.30;8.93;;;;;;;16.48;100.00;102729.59;4962517;28;20905;-77
2023/10/01 10:27:35;;;;;;;17.23;8.53;;;;;;;16.02;100.00;102669.50;4972427;28;20929;-76
2023/10/01 10:30:01;;;;;;;15.80;8.77;;;;;;;16.41;100.00;102698.91;4966686;28;20484;-77
2023/10/01 10:32:30;;;;;;;15.80;8.47;;;;;;;15.89;100.00;102585.50;4961357;28;20820;-76
2023/10/01 10:35:04;;;;;;;16.47;8.03;;;;;;;16.54;100.00;102662.97;4961004;28;20217;-78
2023/10/01 10:37:43;;;;;;;13.70;7.77;;;;;;;16.77;100.00;102668.22;4960568;28;20499;-77
2023/10/01 10:43:04;;;;;;;13.73;7.67;;;;;;;16.99;100.00;102655.47;4947265;28;20941;-76
2023/10/01 10:45:46;;;;;;;13.63;7.00;;;;;;;16.72;100.00;102609.19;4957857;28;20509;-76
2023/10/01 10:48:21;;;;;;;17.07;8.57;;;;;;;16.34;100.00;102553.63;4965019;28;20477;-76
2023/10/01 10:50:56;;;;;;;16.17;7.70;;;;;;;16.88;100.00;102640.59;4969847;28;20975;-77
2023/10/01 10:53:23;;;;;;;14.70;7.70;;;;;;;16.37;100.00;102534.28;4968507;28;20887;-77
2023/10/01 10:56:15;;;;;;;19.00;8.40;;;;;;;17.38;100.00;102616.91;4968169;28;20445;-77
2023/10/01 10:59:01;;;;;;;17.90;8.63;;;;;;;17.10;100.00;102594.47;4964787;28;20465;-75
2023/10/01 11:01:43;;;;;;;16.43;8.20;;;;;;;17.12;100.00;102608.63;4954232;28;20485;-76
2023/10/01 11:04:09;;;;;;;19.73;9.27;;;;;;;17.13;100.00;102575.06;4964246;28;20529;-77
2023/10/01 11:06:44;;;;;;;13.17;6.60;;;;;;;16.54;100.00;102411.06;4962490;28;20449;-75
2023/10/01 11:09:25;;;;;;;13.60;7.10;;;;;;;17.30;100.00;102505.91;4961842;28;20448;-76
2023/10/01 11:12:04;;;;;;;15.60;8.53;;;;;;;17.68;100.00;102548.81;4962332;28;20473;-76
2023/10/01 11:14:30;;;;;;;17.80;7.70;;;;;;;18.00;100.00;102533.66;4961921;28;20807;-75
2023/10/01 11:16:56;;;;;;;19.40;7.53;;;;;;;18.02;100.00;102528.00;4953810;28;20541;-75
2023/10/01 11:19:25;;;;;;;14.10;7.10;;;;;;;18.16;100.00;102521.53;4966915;28;20961;-76
2023/10/01 11:21:59;;;;;;;14.60;7.37;;;;;;;18.00;100.00;102470.38;4966406;28;20215;-75
2023/10/01 11:24:36;;;;;;;18.10;8.00;;;;;;;18.26;100.00;102497.53;4967563;28;20495;-76
2023/10/01 11:27:22;;;;;;;14.40;7.07;;;;;;;18.49;100.00;102471.81;4963975;28;20495;-76
2023/10/01 11:30:17;;;;;;;18.07;7.90;;;;;;;18.29;100.00;102431.09;4957946;28;20446;-76
2023/10/01 11:32:58;;;;;;;19.33;8.63;;;;;;;18.49;100.00;102444.63;4952329;28;20560;-77
2023/10/01 11:36:22;;;;;;;14.40;6.63;;;;;;;18.47;100.00;102447.53;4961529;28;20469;-78
2023/10/01 11:38:45;;;;;;;13.90;7.63;;;;;;;18.95;100.00;102421.94;4967474;28;20458;-76
2023/10/01 11:41:11;;;;;;;17.60;6.40;;;;;;;18.94;100.00;102363.97;4967558;28;20437;-76
2023/10/01 11:43:58;;;;;;;13.80;7.13;;;;;;;18.90;100.00;102361.91;4968441;28;20940;-77
2023/10/01 11:46:34;;;;;;;16.40;6.87;;;;;;;19.16;100.00;102372.63;4968455;28;20193;-76
2023/10/01 11:49:06;;;;;;;18.07;6.80;;;;;;;19.27;100.00;102352.06;4967524;28;20449;-76
2023/10/01 11:52:21;;;;;;;12.90;6.53;;;;;;;19.19;100.00;102349.59;4963108;28;20442;-76
2023/10/01 11:54:44;;;;;;;12.90;5.90;;;;;;;19.09;100.00;102322.03;4967399;28;20469;-75
2023/10/01 11:59:46;;;;;;;14.87;6.97;;;;;;;16.74;100.00;101958.69;4973930;23;20422;-75
2023/10/01 12:02:18;;;;;;;18.30;7.53;;;;;;;17.22;100.00;102052.44;4955848;28;20568;-75
2023/10/01 12:04:44;;;;;;;14.60;7.20;;;;;;;16.31;100.00;101902.34;4957954;28;20814;-75
2023/10/01 12:07:17;;;;;;;16.27;7.40;;;;;;;18.70;100.00;102294.88;4952091;28;20450;-75
2023/10/01 12:09:55;;;;;;;13.97;6.37;;;;;;;16.54;100.00;101942.50;4951078;28;20457;-75